Flight Briefing for CMB833

Departure Arrival
Ramstein Air Force Base (ETAR)
Click to view FAA NOTAMS
Bagram Air Base (OAIX)
Click to view FAA NOTAMS
Departure Time Arrival Time
N/A N/A
Aircraft Distance
B767-300BDSF 2799nm
Departure METAR Arrival METAR
ETAR 181456Z 27010KT 9999 CLR 10/00 A3010 RMK AO2A SLP203 60000 T00961003 55001 $ OAIX 181524Z 22004KT 9999 -RA BKN029 BKN037 OVC044 08/06 A3008 RMK AO2A VIS 2600 RWY21 SLP140 $
Suggested Route





View recent IFR Routes data
Notes
USTRANSCOM CONTRACT FLIGHT

Charts and Procedures

Charts for ETAR
No chart available
Charts for OAIX
No chart available

Windy.com Weather Map